createdAt,value
2018-06-14T00:02:16.653Z,4.67
2018-06-14T00:04:44.821Z,4.77
2018-06-14T00:07:13.077Z,4.73
2018-06-14T00:09:41.336Z,5.50
2018-06-14T00:12:09.644Z,4.70
2018-06-14T00:14:37.857Z,5.10
2018-06-14T00:17:06.083Z,4.83
2018-06-14T00:19:34.253Z,4.93
2018-06-14T00:22:02.411Z,5.30
2018-06-14T00:24:30.569Z,5.07
2018-06-14T00:26:58.755Z,4.47
2018-06-14T00:29:26.907Z,5.13
2018-06-14T00:31:55.072Z,5.27
2018-06-14T00:34:23.350Z,4.70
2018-06-14T00:36:51.512Z,5.20
2018-06-14T00:39:19.748Z,5.30
2018-06-14T00:41:47.927Z,4.30
2018-06-14T00:44:16.104Z,5.00
2018-06-14T00:46:44.343Z,4.77
2018-06-14T00:49:12.528Z,4.70
2018-06-14T00:51:41.599Z,4.27
2018-06-14T00:54:09.795Z,6.17
2018-06-14T00:56:43.499Z,5.33
2018-06-14T00:59:11.678Z,5.20
2018-06-14T01:01:39.855Z,4.57
2018-06-14T01:04:08.084Z,4.43
2018-06-14T01:06:36.199Z,4.70
2018-06-14T01:09:06.133Z,4.20
2018-06-14T01:11:34.276Z,4.63
2018-06-14T01:14:02.425Z,4.23
2018-06-14T01:16:30.628Z,4.60
2018-06-14T01:18:58.924Z,4.60
2018-06-14T01:21:27.252Z,4.87
2018-06-14T01:23:55.578Z,4.77
2018-06-14T01:26:24.063Z,5.03
2018-06-14T01:28:52.343Z,4.93
2018-06-14T01:31:20.600Z,5.03
2018-06-14T01:33:48.788Z,4.63
2018-06-14T01:36:16.923Z,5.17
2018-06-14T01:38:45.132Z,4.50
2018-06-14T01:41:13.327Z,5.33
2018-06-14T01:43:41.507Z,4.47
2018-06-14T01:46:09.676Z,4.37
2018-06-14T01:48:37.935Z,3.73
2018-06-14T01:51:06.164Z,4.20
2018-06-14T01:53:34.338Z,4.13
2018-06-14T01:56:02.461Z,4.13
2018-06-14T01:58:30.616Z,4.27
2018-06-14T02:01:00.030Z,3.87
2018-06-14T02:03:28.272Z,4.20
2018-06-14T02:05:56.505Z,5.00
2018-06-14T02:08:25.524Z,4.67
2018-06-14T02:10:53.772Z,4.70
2018-06-14T02:13:21.908Z,5.40
2018-06-14T02:15:50.218Z,4.87
2018-06-14T02:18:18.354Z,4.83
2018-06-14T02:20:46.572Z,5.20
2018-06-14T02:23:14.752Z,4.83
2018-06-14T02:25:42.935Z,4.97
2018-06-14T02:28:11.064Z,5.30
2018-06-14T02:30:39.279Z,5.17
2018-06-14T02:33:07.484Z,4.83
2018-06-14T02:35:35.844Z,5.10
2018-06-14T02:38:04.053Z,5.03
2018-06-14T02:40:32.198Z,4.73
2018-06-14T02:43:00.421Z,5.10
2018-06-14T02:45:28.631Z,5.90
2018-06-14T02:47:56.855Z,5.37
2018-06-14T02:50:25.139Z,5.57
2018-06-14T02:52:53.448Z,5.87
2018-06-14T02:55:21.597Z,5.50
2018-06-14T02:57:49.746Z,5.30
2018-06-14T03:00:17.875Z,5.50
2018-06-14T03:02:46.019Z,5.53
2018-06-14T03:05:14.133Z,6.03
2018-06-14T03:07:42.271Z,5.73
2018-06-14T03:10:10.428Z,6.23
2018-06-14T03:12:38.557Z,6.00
2018-06-14T03:15:06.735Z,5.90
2018-06-14T03:17:34.915Z,5.70
2018-06-14T03:20:03.052Z,5.57
2018-06-14T03:22:31.183Z,5.63
2018-06-14T03:24:59.419Z,6.27
2018-06-14T03:27:27.534Z,6.23
2018-06-14T03:29:55.671Z,5.83
2018-06-14T03:32:23.809Z,5.67
2018-06-14T03:34:52.063Z,5.90
2018-06-14T03:37:20.251Z,6.00
2018-06-14T03:39:48.407Z,5.90
2018-06-14T03:42:16.931Z,6.77
2018-06-14T03:44:45.056Z,5.83
2018-06-14T03:47:13.416Z,5.93
2018-06-14T03:49:42.514Z,5.60
2018-06-14T03:52:11.727Z,6.20
2018-06-14T03:54:40.423Z,6.87
2018-06-14T03:57:08.725Z,7.03
2018-06-14T03:59:36.955Z,6.63
2018-06-14T04:02:05.555Z,6.10
2018-06-14T04:04:33.740Z,7.00
2018-06-14T04:07:01.893Z,6.57
2018-06-14T04:09:30.011Z,6.27
2018-06-14T04:11:58.140Z,6.47
2018-06-14T04:14:26.248Z,6.67
2018-06-14T04:16:54.483Z,6.37
2018-06-14T04:19:22.608Z,6.10
2018-06-14T04:21:51.875Z,5.80
2018-06-14T04:24:19.966Z,6.67
2018-06-14T04:26:48.113Z,6.40
2018-06-14T04:29:16.215Z,5.80
2018-06-14T04:31:44.367Z,6.17
2018-06-14T04:34:12.431Z,6.00
2018-06-14T04:36:40.716Z,5.93
2018-06-14T04:39:09.795Z,5.57
2018-06-14T04:41:38.067Z,6.90
2018-06-14T04:44:06.464Z,6.33
2018-06-14T04:46:34.611Z,5.93
2018-06-14T04:49:02.738Z,5.97
2018-06-14T04:51:33.019Z,6.37
2018-06-14T04:54:01.184Z,6.60
2018-06-14T04:56:29.313Z,6.93
2018-06-14T04:58:57.397Z,5.77
2018-06-14T05:01:25.591Z,5.90
2018-06-14T05:03:53.725Z,6.00
2018-06-14T05:06:21.859Z,6.47
2018-06-14T05:08:49.979Z,5.80
2018-06-14T05:11:18.074Z,5.73
2018-06-14T05:13:46.144Z,5.57
2018-06-14T05:16:14.281Z,5.63
2018-06-14T05:18:42.464Z,5.73
2018-06-14T05:21:10.773Z,5.50
2018-06-14T05:23:38.956Z,5.20
2018-06-14T05:26:07.077Z,5.50
2018-06-14T05:28:35.296Z,5.13
2018-06-14T05:31:03.395Z,5.17
2018-06-14T05:33:31.574Z,5.77
2018-06-14T05:35:59.744Z,5.63
2018-06-14T05:38:27.916Z,5.77
2018-06-14T05:40:56.139Z,5.87
2018-06-14T05:43:24.298Z,5.67
2018-06-14T05:45:52.415Z,5.70
2018-06-14T05:48:20.523Z,5.63
2018-06-14T05:50:48.603Z,5.90
2018-06-14T05:53:16.767Z,6.03
2018-06-14T05:55:44.910Z,5.73
2018-06-14T05:58:13.098Z,5.60
2018-06-14T06:00:42.142Z,6.33
2018-06-14T06:03:10.603Z,6.27
2018-06-14T06:05:38.758Z,6.23
2018-06-14T06:08:06.949Z,6.10
2018-06-14T06:10:35.189Z,5.57
2018-06-14T06:13:03.409Z,5.87
2018-06-14T06:15:31.632Z,5.83
2018-06-14T06:17:59.833Z,6.03
2018-06-14T06:20:27.996Z,5.80
2018-06-14T06:22:56.111Z,5.20
2018-06-14T06:25:24.443Z,6.17
2018-06-14T06:27:52.617Z,5.73
2018-06-14T06:30:20.798Z,5.03
2018-06-14T06:32:48.979Z,6.10
2018-06-14T06:35:17.140Z,5.00
2018-06-14T06:37:45.335Z,5.50
2018-06-14T06:40:13.708Z,5.30
2018-06-14T06:42:41.911Z,5.57
2018-06-14T06:45:10.141Z,5.57
2018-06-14T06:47:38.354Z,5.40
2018-06-14T06:50:06.539Z,5.30
2018-06-14T06:52:34.724Z,5.23
2018-06-14T06:55:02.908Z,4.90
2018-06-14T06:57:31.218Z,4.87
2018-06-14T06:59:59.472Z,4.77
2018-06-14T07:02:27.775Z,4.87
2018-06-14T07:04:55.972Z,4.50
2018-06-14T07:07:24.181Z,4.97
2018-06-14T07:09:52.310Z,4.80
2018-06-14T07:12:20.663Z,4.13
2018-06-14T07:14:48.831Z,5.30
2018-06-14T07:17:16.995Z,5.03
2018-06-14T07:19:45.140Z,4.23
2018-06-14T07:22:13.312Z,4.27
2018-06-14T07:24:41.560Z,4.60
2018-06-14T07:27:09.805Z,4.27
2018-06-14T07:29:38.075Z,4.43
2018-06-14T07:32:06.619Z,4.00
2018-06-14T07:34:34.791Z,3.80
2018-06-14T07:37:03.074Z,3.80
2018-06-14T07:39:31.313Z,4.47
2018-06-14T07:41:59.455Z,4.40
2018-06-14T07:44:27.573Z,3.83
2018-06-14T07:46:55.658Z,4.20
2018-06-14T07:49:23.784Z,3.83
2018-06-14T07:51:51.933Z,4.40
2018-06-14T07:54:20.097Z,2.63
2018-06-14T07:56:48.351Z,2.53
2018-06-14T07:59:16.562Z,2.37
2018-06-14T08:01:44.734Z,1.90
2018-06-14T08:04:13.795Z,1.60
2018-06-14T08:06:42.024Z,1.90
2018-06-14T08:09:10.869Z,1.83
2018-06-14T08:11:39.960Z,2.40
2018-06-14T08:14:08.552Z,2.20
2018-06-14T08:16:37.491Z,2.20
2018-06-14T08:19:05.716Z,1.97
2018-06-14T08:21:33.915Z,2.00
2018-06-14T08:24:02.228Z,2.20
2018-06-14T08:26:30.389Z,2.07
2018-06-14T08:28:58.577Z,2.03
2018-06-14T08:31:26.749Z,2.30
2018-06-14T08:33:55.104Z,1.80
2018-06-14T08:36:23.272Z,2.30
2018-06-14T08:38:51.480Z,2.30
2018-06-14T08:41:19.567Z,2.50
2018-06-14T08:43:47.952Z,2.10
2018-06-14T08:46:16.312Z,2.00
2018-06-14T08:48:44.625Z,3.27
2018-06-14T08:51:12.881Z,2.17
2018-06-14T08:53:41.124Z,2.20
2018-06-14T08:56:09.316Z,2.67
2018-06-14T08:58:37.399Z,2.10
2018-06-14T09:01:05.660Z,2.73
2018-06-14T09:03:33.833Z,2.40
2018-06-14T09:06:01.973Z,2.43
2018-06-14T09:08:30.068Z,2.17
2018-06-14T09:10:58.343Z,2.70
2018-06-14T09:13:26.552Z,2.47
2018-06-14T09:15:54.696Z,2.20
2018-06-14T09:18:22.880Z,2.77
2018-06-14T09:20:51.155Z,2.60
2018-06-14T09:23:19.242Z,2.37
2018-06-14T09:25:47.365Z,2.87
2018-06-14T09:28:15.481Z,2.67
2018-06-14T09:30:43.601Z,2.60
2018-06-14T09:33:11.707Z,2.60
2018-06-14T09:35:39.831Z,2.57
2018-06-14T09:38:08.443Z,2.60
2018-06-14T09:40:36.632Z,2.90
2018-06-14T09:43:05.122Z,2.60
2018-06-14T09:45:33.246Z,2.80
2018-06-14T09:48:01.459Z,2.80
2018-06-14T09:50:29.668Z,2.63
2018-06-14T09:52:57.790Z,2.50
2018-06-14T09:55:26.017Z,2.90
2018-06-14T09:57:54.169Z,3.10
2018-06-14T10:00:22.408Z,2.93
2018-06-14T10:02:50.637Z,2.83
2018-06-14T10:05:18.789Z,2.70
2018-06-14T10:07:46.980Z,2.83
2018-06-14T10:10:15.176Z,2.83
2018-06-14T10:12:43.357Z,3.10
2018-06-14T10:15:11.596Z,2.63
2018-06-14T10:17:39.778Z,3.37
2018-06-14T10:20:07.928Z,2.90
2018-06-14T10:22:36.027Z,2.60
2018-06-14T10:25:04.171Z,2.60
2018-06-14T10:27:32.362Z,2.77
2018-06-14T10:30:00.460Z,2.70
2018-06-14T10:32:28.607Z,2.53
2018-06-14T10:34:56.770Z,2.60
2018-06-14T10:37:24.939Z,2.80
2018-06-14T10:39:53.252Z,2.50
2018-06-14T10:42:21.644Z,2.37
2018-06-14T10:44:49.792Z,2.37
2018-06-14T10:47:18.029Z,2.47
2018-06-14T10:49:46.333Z,2.60
2018-06-14T10:52:14.594Z,2.37
2018-06-14T10:54:42.765Z,2.13
2018-06-14T10:57:10.953Z,2.40
2018-06-14T10:59:39.095Z,2.20
2018-06-14T11:02:07.259Z,2.50
2018-06-14T11:04:35.361Z,2.73
2018-06-14T11:07:03.550Z,2.23
2018-06-14T11:09:31.748Z,2.03
2018-06-14T11:11:59.985Z,2.10
2018-06-14T11:14:28.803Z,2.30
2018-06-14T11:16:57.008Z,2.37
2018-06-14T11:19:25.176Z,2.63
2018-06-14T11:21:53.462Z,2.33
2018-06-14T11:24:21.673Z,2.13
2018-06-14T11:26:49.903Z,3.07
2018-06-14T11:29:18.072Z,2.90
2018-06-14T11:31:46.319Z,2.63
2018-06-14T11:34:14.484Z,2.73
2018-06-14T11:36:42.702Z,2.80
2018-06-14T11:39:10.865Z,2.80
2018-06-14T11:41:39.092Z,2.70
2018-06-14T11:44:07.264Z,2.03
2018-06-14T11:46:35.410Z,2.20
2018-06-14T11:49:03.556Z,2.17
2018-06-14T11:51:31.729Z,2.07
2018-06-14T11:53:59.912Z,2.60
2018-06-14T11:56:28.146Z,2.13
2018-06-14T11:58:56.319Z,2.43
2018-06-14T12:01:24.472Z,2.27
2018-06-14T12:03:52.699Z,2.20
2018-06-14T12:06:20.898Z,2.43
2018-06-14T12:08:49.296Z,2.30
2018-06-14T12:11:17.518Z,2.50
2018-06-14T12:13:45.724Z,2.33
2018-06-14T12:16:13.976Z,2.00
2018-06-14T12:18:42.220Z,2.33
2018-06-14T12:21:10.646Z,2.20
2018-06-14T12:23:38.927Z,2.30
2018-06-14T12:26:07.261Z,7.73
2018-06-14T12:28:35.574Z,4.03
2018-06-14T12:31:03.964Z,4.63
2018-06-14T12:33:32.192Z,2.90
2018-06-14T12:36:00.357Z,2.73
2018-06-14T12:38:28.585Z,3.10
2018-06-14T12:40:56.812Z,2.73
2018-06-14T12:45:59.815Z,2.73
2018-06-14T12:48:27.997Z,2.57
2018-06-14T12:50:56.380Z,2.80
2018-06-14T12:53:24.702Z,2.90
2018-06-14T12:55:52.848Z,2.90
2018-06-14T12:58:21.033Z,2.90
2018-06-14T13:00:49.269Z,3.00
2018-06-14T13:03:17.496Z,2.57
2018-06-14T13:05:45.655Z,2.87
2018-06-14T13:08:13.792Z,2.60
2018-06-14T13:10:42.139Z,2.87
2018-06-14T13:13:10.574Z,2.43
2018-06-14T13:15:38.833Z,2.80
2018-06-14T13:18:07.041Z,2.50
2018-06-14T13:20:35.270Z,2.17
2018-06-14T13:23:03.452Z,2.57
2018-06-14T13:25:31.772Z,3.00
2018-06-14T13:28:00.016Z,2.53
2018-06-14T13:30:28.231Z,2.63
2018-06-14T13:32:56.401Z,2.70
2018-06-14T13:35:24.648Z,2.63
2018-06-14T13:37:52.823Z,2.70
2018-06-14T13:40:20.965Z,2.37
2018-06-14T13:42:49.620Z,2.50
2018-06-14T13:45:17.777Z,5.20
2018-06-14T13:47:45.956Z,2.90
2018-06-14T13:50:14.080Z,2.60
2018-06-14T13:52:42.214Z,2.73
2018-06-14T13:55:10.347Z,2.70
2018-06-14T13:57:38.476Z,2.47
2018-06-14T14:00:06.663Z,3.20
2018-06-14T14:02:34.876Z,2.93
2018-06-14T14:05:03.105Z,3.07
2018-06-14T14:07:31.275Z,3.57
2018-06-14T14:09:59.830Z,3.03
2018-06-14T14:12:28.439Z,3.53
2018-06-14T14:14:56.915Z,4.37
2018-06-14T14:17:25.128Z,3.17
2018-06-14T14:19:53.367Z,3.40
2018-06-14T14:22:21.585Z,3.50
2018-06-14T14:24:49.800Z,2.97
2018-06-14T14:27:17.951Z,2.90
2018-06-14T14:29:46.148Z,3.47
2018-06-14T14:32:14.385Z,2.90
2018-06-14T14:34:42.616Z,1.90
2018-06-14T14:37:10.860Z,2.33
2018-06-14T14:39:39.075Z,2.10
2018-06-14T14:42:07.282Z,2.43
2018-06-14T14:44:35.517Z,2.70
2018-06-14T14:47:03.789Z,3.20
2018-06-14T14:49:32.044Z,2.70
2018-06-14T14:52:00.430Z,3.63
2018-06-14T14:54:28.831Z,3.00
2018-06-14T14:56:57.052Z,3.37
2018-06-14T14:59:25.345Z,3.20
2018-06-14T15:01:53.508Z,3.00
2018-06-14T15:04:21.645Z,3.60
2018-06-14T15:06:50.197Z,2.93
2018-06-14T15:09:18.392Z,3.27
2018-06-14T15:11:46.583Z,4.13
2018-06-14T15:14:14.775Z,3.17
2018-06-14T15:16:42.979Z,4.40
2018-06-14T15:19:11.317Z,2.87
2018-06-14T15:21:39.442Z,6.00
2018-06-14T15:24:07.716Z,2.97
2018-06-14T15:26:35.913Z,3.20
2018-06-14T15:29:04.151Z,3.33
2018-06-14T15:31:32.334Z,3.07
2018-06-14T15:34:00.508Z,2.93
2018-06-14T15:36:28.680Z,3.23
2018-06-14T15:38:56.975Z,3.97
2018-06-14T15:41:25.234Z,2.97
2018-06-14T15:43:53.584Z,3.30
2018-06-14T15:46:21.793Z,3.87
2018-06-14T15:48:49.978Z,3.10
2018-06-14T15:51:18.281Z,3.50
2018-06-14T15:53:46.491Z,3.10
2018-06-14T15:56:25.846Z,3.40
2018-06-14T15:58:54.199Z,3.20
2018-06-14T16:01:22.490Z,12.73
2018-06-14T16:03:50.733Z,5.60
2018-06-14T16:06:18.931Z,6.47
2018-06-14T16:08:47.147Z,2.93
2018-06-14T16:11:15.577Z,4.57
2018-06-14T16:13:43.844Z,4.27
2018-06-14T16:16:12.070Z,3.03
2018-06-14T16:18:40.244Z,6.20
2018-06-14T16:21:08.515Z,3.47
2018-06-14T16:23:37.900Z,3.80
2018-06-14T16:26:07.765Z,3.10
2018-06-14T16:28:39.786Z,4.13
2018-06-14T16:31:09.323Z,3.53
2018-06-14T16:33:37.633Z,2.40
2018-06-14T16:36:07.498Z,2.13
2018-06-14T16:38:36.716Z,2.07
2018-06-14T16:41:05.859Z,3.73
2018-06-14T16:43:35.123Z,3.47
2018-06-14T16:46:05.383Z,3.10
2018-06-14T16:48:34.474Z,2.87
2018-06-14T16:51:03.672Z,2.70
2018-06-14T16:53:33.210Z,3.60
2018-06-14T16:56:01.597Z,11.10
2018-06-14T16:58:31.109Z,2.70
2018-06-14T17:01:00.615Z,6.23
2018-06-14T17:03:29.935Z,2.57
2018-06-14T17:05:59.207Z,8.93
2018-06-14T17:08:28.613Z,7.87
2018-06-14T17:10:58.198Z,3.83
2018-06-14T17:13:27.528Z,2.10
2018-06-14T17:15:56.718Z,2.30
2018-06-14T17:18:25.978Z,4.10
2018-06-14T17:20:55.305Z,3.40
2018-06-14T17:23:24.588Z,2.83
2018-06-14T17:25:53.729Z,4.37
2018-06-14T17:28:23.129Z,3.37
2018-06-14T17:30:51.535Z,2.23
2018-06-14T17:33:21.139Z,3.97
2018-06-14T17:35:50.458Z,3.40
2018-06-14T17:38:19.988Z,2.90
2018-06-14T17:40:49.763Z,5.00
2018-06-14T17:43:19.505Z,2.60
2018-06-14T17:45:49.477Z,3.13
2018-06-14T17:48:19.352Z,3.20
2018-06-14T17:50:49.104Z,3.87
2018-06-14T17:53:19.563Z,6.47
2018-06-14T17:55:48.933Z,3.00
2018-06-14T17:58:18.555Z,2.40
2018-06-14T18:00:48.370Z,9.00
2018-06-14T18:03:18.048Z,7.13
2018-06-14T18:05:46.355Z,6.33
2018-06-14T18:08:15.886Z,25.70
2018-06-14T18:10:45.120Z,11.50
2018-06-14T18:13:14.512Z,3.13
2018-06-14T18:15:43.643Z,2.67
2018-06-14T18:18:13.587Z,3.10
2018-06-14T18:20:42.975Z,3.70
2018-06-14T18:23:12.327Z,4.00
2018-06-14T18:25:41.811Z,4.33
2018-06-14T18:28:10.981Z,2.63
2018-06-14T18:30:40.238Z,6.50
2018-06-14T18:33:09.789Z,2.53
2018-06-14T18:35:39.242Z,2.03
2018-06-14T18:38:08.921Z,12.57
2018-06-14T18:40:38.435Z,2.90
2018-06-14T18:43:08.151Z,1.90
2018-06-14T18:45:37.573Z,2.00
2018-06-14T18:48:06.759Z,2.10
2018-06-14T18:50:36.379Z,2.10
2018-06-14T18:53:05.846Z,2.47
2018-06-14T18:55:35.397Z,2.50
2018-06-14T18:58:04.629Z,3.17
2018-06-14T19:00:34.371Z,2.60
2018-06-14T19:03:03.576Z,2.53
2018-06-14T19:05:32.762Z,3.47
2018-06-14T19:08:01.857Z,8.67
2018-06-14T19:10:31.938Z,29.33
2018-06-14T19:13:01.609Z,36.63
2018-06-14T19:15:31.628Z,32.60
2018-06-14T19:18:01.143Z,19.57
2018-06-14T19:20:31.098Z,15.80
2018-06-14T19:23:00.729Z,18.17
2018-06-14T19:25:29.538Z,17.50
2018-06-14T19:27:59.172Z,15.57
2018-06-14T19:30:28.813Z,15.77
2018-06-14T19:32:58.993Z,12.13
2018-06-14T19:35:27.512Z,8.60
2018-06-14T19:37:57.462Z,8.50
2018-06-14T19:40:27.470Z,9.60
2018-06-14T19:42:57.183Z,8.93
2018-06-14T19:45:26.592Z,7.27
2018-06-14T19:47:56.734Z,7.87
2018-06-14T19:50:26.679Z,7.27
2018-06-14T19:52:56.660Z,20.60
2018-06-14T19:55:26.029Z,13.67
2018-06-14T19:57:55.358Z,10.43
2018-06-14T20:00:24.643Z,11.37
2018-06-14T20:02:54.043Z,8.27
2018-06-14T20:05:23.640Z,8.00
2018-06-14T20:07:52.791Z,11.47
2018-06-14T20:10:22.450Z,6.30
2018-06-14T20:12:51.505Z,7.23
2018-06-14T20:15:20.804Z,6.60
2018-06-14T20:17:50.645Z,7.53
2018-06-14T20:20:20.210Z,4.73
2018-06-14T20:22:49.587Z,5.33
2018-06-14T20:25:18.788Z,5.23
2018-06-14T20:27:48.159Z,5.33
2018-06-14T20:30:16.729Z,8.00
2018-06-14T20:32:46.491Z,5.67
2018-06-14T20:35:14.934Z,5.83
2018-06-14T20:37:44.160Z,5.37
2018-06-14T20:40:13.566Z,6.20
2018-06-14T20:42:43.190Z,6.10
2018-06-14T20:45:12.266Z,6.90
2018-06-14T20:47:41.361Z,5.60
2018-06-14T20:50:10.773Z,5.17
2018-06-14T20:52:39.837Z,6.70
2018-06-14T20:55:09.450Z,5.47
2018-06-14T20:57:38.119Z,6.07
2018-06-14T21:00:07.423Z,4.80
2018-06-14T21:02:36.773Z,5.70
2018-06-14T21:05:06.134Z,5.60
2018-06-14T21:07:35.683Z,5.37
2018-06-14T21:10:05.154Z,6.50
2018-06-14T21:12:34.657Z,5.70
2018-06-14T21:28:03.129Z,6.27
2018-06-14T21:30:32.329Z,6.60
2018-06-14T21:33:01.542Z,6.83
2018-06-14T21:35:30.891Z,6.33
2018-06-14T21:38:00.190Z,6.53
2018-06-14T21:40:29.366Z,6.47
2018-06-14T21:42:58.305Z,7.40
2018-06-14T21:45:27.683Z,6.73
2018-06-14T21:47:56.922Z,6.93
2018-06-14T21:50:25.133Z,6.20
2018-06-14T21:52:53.472Z,6.17
2018-06-14T21:55:21.756Z,6.63
2018-06-14T21:57:50.225Z,7.67
2018-06-14T22:00:18.519Z,7.47
2018-06-14T22:02:52.530Z,6.97
2018-06-14T22:05:20.764Z,7.93
2018-06-14T22:07:49.032Z,7.37
2018-06-14T22:10:17.261Z,6.47
2018-06-14T22:12:45.392Z,6.47
2018-06-14T22:15:13.564Z,6.83
2018-06-14T22:17:41.711Z,6.83
2018-06-14T22:20:09.841Z,6.17
2018-06-14T22:22:38.163Z,6.50
2018-06-14T22:25:06.513Z,6.77
2018-06-14T22:27:35.077Z,6.40
2018-06-14T22:30:03.579Z,7.00
2018-06-14T22:32:31.738Z,7.20
2018-06-14T22:35:05.454Z,6.67
2018-06-14T22:37:33.682Z,6.67
2018-06-14T22:40:01.930Z,6.20
2018-06-14T22:42:30.033Z,10.80
2018-06-14T22:44:58.299Z,6.70
2018-06-14T22:47:26.508Z,7.27
2018-06-14T22:49:54.760Z,7.20
2018-06-14T22:52:55.910Z,6.23
2018-06-14T22:55:25.148Z,7.07
2018-06-14T22:57:53.277Z,6.83
2018-06-14T23:00:27.173Z,7.77
2018-06-14T23:02:55.486Z,6.50
2018-06-14T23:05:23.703Z,6.60
2018-06-14T23:07:52.021Z,6.73
2018-06-14T23:10:27.931Z,6.67
2018-06-14T23:12:56.136Z,6.70
2018-06-14T23:15:24.547Z,6.60
2018-06-14T23:17:53.064Z,7.20
2018-06-14T23:20:22.516Z,6.60
2018-06-14T23:22:51.969Z,6.50
2018-06-14T23:25:21.220Z,6.47
2018-06-14T23:27:49.406Z,6.50
2018-06-14T23:30:18.068Z,7.20
2018-06-14T23:32:46.462Z,6.73
2018-06-14T23:35:14.775Z,6.33
2018-06-14T23:37:43.052Z,7.47
2018-06-14T23:40:11.327Z,7.43
2018-06-14T23:42:39.786Z,6.63
2018-06-14T23:45:08.075Z,6.37
2018-06-14T23:47:36.261Z,7.03
2018-06-14T23:50:04.741Z,7.30
2018-06-14T23:52:32.867Z,7.67
2018-06-14T23:55:01.175Z,7.10
2018-06-14T23:57:29.439Z,7.30
2018-06-14T23:59:57.663Z,7.20
